Date,TemperatureHighF,TemperatureAvgF,TemperatureLowF,DewpointHighF,DewpointAvgF,DewpointLowF,HumidityHigh,HumidityAvg,HumidityLow,PressureMaxIn,PressureMinIn,WindSpeedMaxMPH,WindSpeedAvgMPH,GustSpeedMaxMPH,PrecipitationSumIn
2013-3-1,47.3,40.0,35.2,33.6,29.4,24.3,78,66,56,29.41,29.25,8,2,14,0.00
2013-3-2,40.1,34.2,29.7,26.8,23.1,20.2,71,64,51,29.42,29.34,7,2,14,0.00
2013-3-3,39.2,33.0,28.6,22.7,20.5,18.4,72,60,49,29.43,29.33,9,3,19,0.00
2013-3-4,39.7,32.3,25.2,21.0,17.8,14.0,65,55,44,29.56,29.43,10,3,19,0.00
2013-3-5,46.4,36.6,26.2,29.4,21.5,13.0,69,55,34,29.62,29.39,7,2,11,0.00
2013-3-6,38.1,35.3,32.9,34.9,32.3,26.4,96,89,65,29.52,29.21,103,4,103,0.64
2013-3-7,47.3,40.2,33.4,30.0,27.1,23.9,78,60,44,29.68,29.52,11,3,21,0.01
2013-3-8,48.2,40.4,32.0,28.8,25.8,22.5,74,56,46,29.81,29.66,12,4,24,0.00
2013-3-9,59.4,45.0,33.4,26.6,23.3,17.3,67,45,21,29.88,29.79,6,2,12,0.00
2013-3-10,58.3,45.9,29.1,34.9,25.0,13.4,80,49,18,29.88,29.77,7,2,11,0.00
2013-3-11,58.1,49.8,41.9,48.5,43.3,35.4,91,79,63,29.81,29.48,7,2,14,0.00
2013-3-12,57.4,50.8,40.3,54.4,44.8,30.9,93,80,61,29.52,29.28,8,2,19,0.54
2013-3-13,51.1,40.0,28.9,36.4,27.1,19.5,91,62,34,29.58,29.43,11,2,21,0.00
2013-3-14,42.1,35.9,29.5,20.3,17.4,13.6,65,48,33,29.63,29.55,12,4,24,0.00
2013-3-15,54.5,42.5,27.0,32.7,23.3,16.2,69,48,32,29.61,29.32,11,2,21,0.00
2013-3-16,49.5,42.6,36.0,37.6,33.8,31.0,86,71,54,29.48,29.23,7,1,12,0.00
2013-3-17,41.9,37.0,33.1,32.2,28.2,21.5,90,71,53,29.82,29.47,7,1,11,0.00
2013-3-18,35.8,35.8,35.6,21.6,21.6,21.1,56,56,55,29.82,29.81,2,1,6,0.00
2013-3-19,35.8,35.8,35.8,21.6,21.6,21.6,56,56,56,29.82,29.82,1,1,4,0.00
2013-3-20,35.8,35.8,35.8,21.6,21.6,21.6,56,56,56,29.82,29.82,1,1,4,0.00
2013-3-21,47.1,34.1,26.4,29.4,18.2,9.1,56,52,34,30.05,29.82,9,1,21,0.32
2013-3-22,46.0,34.8,25.9,23.5,17.6,10.6,64,50,36,30.17,30.02,10,3,19,0.00
2013-3-23,49.3,38.8,25.7,27.0,21.9,17.8,75,52,34,30.19,30.09,10,2,19,0.00
2013-3-24,45.7,36.2,26.8,30.4,23.3,19.0,79,60,41,30.17,29.85,5,1,10,0.00
2013-3-25,40.5,35.3,32.0,35.8,32.2,29.8,95,89,79,29.87,29.69,4,0,7,0.40
2013-3-26,50.9,40.8,29.3,38.2,31.3,24.1,96,72,37,30.14,29.86,6,1,12,0.02
2013-3-27,53.8,42.8,36.3,34.9,29.7,26.6,73,60,41,30.27,30.13,10,3,21,0.01
2013-3-28,50.7,41.7,31.3,35.5,29.4,25.4,86,63,40,30.38,30.24,8,2,17,0.00
2013-3-29,59.4,48.1,40.1,33.5,29.0,25.6,65,49,33,30.41,30.31,7,2,17,0.00
2013-3-30,66.6,47.2,32.0,39.3,27.6,20.3,84,51,25,30.40,30.29,7,1,11,0.00
2013-3-31,54.9,46.2,38.1,48.4,39.9,26.8,94,79,60,30.31,29.92,4,1,9,0.04